sensor_id;sensor_type;location;lat;lon;timestamp;pressure;altitude;pressure_sealevel;temperature;humidity
61682;BME280;47577;43.610;25.010;2023-04-20T00:01:57;100017.38;;;11.44;75.88
61682;BME280;47577;43.610;25.010;2023-04-20T00:04:29;100020.97;;;11.43;75.93
61682;BME280;47577;43.610;25.010;2023-04-20T00:06:55;100018.16;;;11.46;75.97
61682;BME280;47577;43.610;25.010;2023-04-20T00:09:21;100025.28;;;11.46;76.12
61682;BME280;47577;43.610;25.010;2023-04-20T00:11:47;100012.13;;;11.43;75.71
61682;BME280;47577;43.610;25.010;2023-04-20T00:14:14;100020.16;;;11.41;75.56
61682;BME280;47577;43.610;25.010;2023-04-20T00:16:40;100017.69;;;11.37;75.21
61682;BME280;47577;43.610;25.010;2023-04-20T00:19:06;100027.31;;;11.41;75.13
61682;BME280;47577;43.610;25.010;2023-04-20T00:21:33;100013.84;;;11.44;75.45
61682;BME280;47577;43.610;25.010;2023-04-20T00:24:01;100010.38;;;11.42;75.94
61682;BME280;47577;43.610;25.010;2023-04-20T00:26:28;100013.84;;;11.44;75.67
61682;BME280;47577;43.610;25.010;2023-04-20T00:28:54;100006.06;;;11.39;74.97
61682;BME280;47577;43.610;25.010;2023-04-20T00:31:20;100018.38;;;11.42;75.28
61682;BME280;47577;43.610;25.010;2023-04-20T00:33:46;100008.25;;;11.29;75.78
61682;BME280;47577;43.610;25.010;2023-04-20T00:36:12;100012.78;;;11.27;75.88
61682;BME280;47577;43.610;25.010;2023-04-20T00:38:38;100017.91;;;11.32;75.56
61682;BME280;47577;43.610;25.010;2023-04-20T00:41:03;100017.50;;;11.21;76.31
61682;BME280;47577;43.610;25.010;2023-04-20T00:43:29;100012.44;;;11.14;75.94
61682;BME280;47577;43.610;25.010;2023-04-20T00:45:55;100006.91;;;11.19;75.01
61682;BME280;47577;43.610;25.010;2023-04-20T00:48:21;100021.22;;;11.16;75.58
61682;BME280;47577;43.610;25.010;2023-04-20T00:50:48;100013.13;;;11.20;74.46
61682;BME280;47577;43.610;25.010;2023-04-20T00:53:15;100019.91;;;11.27;74.33
61682;BME280;47577;43.610;25.010;2023-04-20T00:55:43;100014.75;;;11.22;74.78
61682;BME280;47577;43.610;25.010;2023-04-20T00:58:09;100018.25;;;11.24;74.94
61682;BME280;47577;43.610;25.010;2023-04-20T01:00:36;100006.00;;;11.20;73.84
61682;BME280;47577;43.610;25.010;2023-04-20T01:03:04;100018.56;;;11.16;74.86
61682;BME280;47577;43.610;25.010;2023-04-20T01:05:30;100014.03;;;11.19;74.99
61682;BME280;47577;43.610;25.010;2023-04-20T01:07:56;100010.44;;;11.20;74.53
61682;BME280;47577;43.610;25.010;2023-04-20T01:10:22;100006.44;;;11.09;74.46
61682;BME280;47577;43.610;25.010;2023-04-20T01:12:47;99996.06;;;11.03;75.11
61682;BME280;47577;43.610;25.010;2023-04-20T01:15:13;100007.75;;;10.99;75.04
61682;BME280;47577;43.610;25.010;2023-04-20T01:17:39;100011.91;;;11.06;75.05
61682;BME280;47577;43.610;25.010;2023-04-20T01:20:06;100002.38;;;11.01;74.46
61682;BME280;47577;43.610;25.010;2023-04-20T01:22:41;100000.31;;;11.07;74.61
61682;BME280;47577;43.610;25.010;2023-04-20T01:25:07;100010.59;;;10.94;75.19
61682;BME280;47577;43.610;25.010;2023-04-20T01:27:33;100000.16;;;10.90;75.43
61682;BME280;47577;43.610;25.010;2023-04-20T01:29:58;100006.34;;;10.90;75.62
61682;BME280;47577;43.610;25.010;2023-04-20T01:32:24;99998.88;;;10.78;76.27
61682;BME280;47577;43.610;25.010;2023-04-20T01:34:50;99996.34;;;10.75;76.59
61682;BME280;47577;43.610;25.010;2023-04-20T01:37:15;99999.78;;;10.77;75.90
61682;BME280;47577;43.610;25.010;2023-04-20T01:39:41;99995.72;;;10.68;75.84
61682;BME280;47577;43.610;25.010;2023-04-20T01:42:08;99991.38;;;10.66;75.66
61682;BME280;47577;43.610;25.010;2023-04-20T01:44:33;99994.03;;;10.66;75.71
61682;BME280;47577;43.610;25.010;2023-04-20T01:46:59;99995.78;;;10.67;75.66
61682;BME280;47577;43.610;25.010;2023-04-20T01:49:25;99991.66;;;10.59;75.67
61682;BME280;47577;43.610;25.010;2023-04-20T01:51:51;99988.22;;;10.56;75.46
61682;BME280;47577;43.610;25.010;2023-04-20T01:54:16;99983.88;;;10.55;76.07
61682;BME280;47577;43.610;25.010;2023-04-20T01:56:42;99978.91;;;10.46;76.36
61682;BME280;47577;43.610;25.010;2023-04-20T01:59:07;99983.31;;;10.47;75.72
61682;BME280;47577;43.610;25.010;2023-04-20T02:01:33;99985.47;;;10.37;76.57
61682;BME280;47577;43.610;25.010;2023-04-20T02:03:59;99985.78;;;10.28;76.76
61682;BME280;47577;43.610;25.010;2023-04-20T02:06:25;99984.38;;;10.19;77.86
61682;BME280;47577;43.610;25.010;2023-04-20T02:08:50;99979.22;;;10.14;77.51
61682;BME280;47577;43.610;25.010;2023-04-20T02:11:16;99983.78;;;10.11;78.07
61682;BME280;47577;43.610;25.010;2023-04-20T02:13:42;99984.25;;;9.98;77.27
61682;BME280;47577;43.610;25.010;2023-04-20T02:16:07;99985.34;;;9.93;77.83
61682;BME280;47577;43.610;25.010;2023-04-20T02:18:33;99975.31;;;9.77;78.24
61682;BME280;47577;43.610;25.010;2023-04-20T02:21:00;99979.19;;;9.67;78.33
61682;BME280;47577;43.610;25.010;2023-04-20T02:23:25;99975.13;;;9.58;78.54
61682;BME280;47577;43.610;25.010;2023-04-20T02:25:51;99973.50;;;9.54;79.49
61682;BME280;47577;43.610;25.010;2023-04-20T02:28:17;99969.22;;;9.50;79.48
61682;BME280;47577;43.610;25.010;2023-04-20T02:30:42;99976.38;;;9.48;80.95
61682;BME280;47577;43.610;25.010;2023-04-20T02:33:08;99964.47;;;9.35;80.36
61682;BME280;47577;43.610;25.010;2023-04-20T02:35:35;99968.63;;;9.17;81.20
61682;BME280;47577;43.610;25.010;2023-04-20T02:38:01;99959.16;;;9.09;81.75
61682;BME280;47577;43.610;25.010;2023-04-20T02:40:26;99972.31;;;9.12;81.29
61682;BME280;47577;43.610;25.010;2023-04-20T02:42:52;99961.69;;;9.12;81.14
61682;BME280;47577;43.610;25.010;2023-04-20T02:45:18;99946.31;;;8.97;80.72
61682;BME280;47577;43.610;25.010;2023-04-20T02:47:43;99966.66;;;8.96;82.83
61682;BME280;47577;43.610;25.010;2023-04-20T02:50:09;99960.72;;;8.90;82.59
61682;BME280;47577;43.610;25.010;2023-04-20T02:52:35;99959.91;;;8.88;82.70
61682;BME280;47577;43.610;25.010;2023-04-20T02:55:01;99959.16;;;8.83;81.59
61682;BME280;47577;43.610;25.010;2023-04-20T02:57:26;99960.19;;;8.78;82.32
61682;BME280;47577;43.610;25.010;2023-04-20T02:59:52;99948.44;;;8.60;82.82
61682;BME280;47577;43.610;25.010;2023-04-20T03:02:18;99952.69;;;8.65;83.47
61682;BME280;47577;43.610;25.010;2023-04-20T03:04:43;99958.03;;;8.63;83.05
61682;BME280;47577;43.610;25.010;2023-04-20T03:07:09;99950.88;;;8.38;84.18
61682;BME280;47577;43.610;25.010;2023-04-20T03:09:35;99956.06;;;8.41;83.30
61682;BME280;47577;43.610;25.010;2023-04-20T03:12:02;99966.94;;;8.32;84.73
61682;BME280;47577;43.610;25.010;2023-04-20T03:14:28;99951.00;;;8.34;83.92
61682;BME280;47577;43.610;25.010;2023-04-20T03:16:54;99959.75;;;8.37;82.99
61682;BME280;47577;43.610;25.010;2023-04-20T03:19:19;99958.72;;;8.41;82.01
61682;BME280;47577;43.610;25.010;2023-04-20T03:21:45;99967.56;;;8.40;83.05
61682;BME280;47577;43.610;25.010;2023-04-20T03:24:11;99972.91;;;8.39;82.70
61682;BME280;47577;43.610;25.010;2023-04-20T03:26:36;99966.84;;;8.35;83.25
61682;BME280;47577;43.610;25.010;2023-04-20T03:29:02;99970.38;;;8.36;83.78
61682;BME280;47577;43.610;25.010;2023-04-20T03:31:27;99964.34;;;8.31;83.91
61682;BME280;47577;43.610;25.010;2023-04-20T03:33:53;99960.84;;;8.30;82.88
61682;BME280;47577;43.610;25.010;2023-04-20T03:36:19;99957.41;;;8.27;83.63
61682;BME280;47577;43.610;25.010;2023-04-20T03:38:44;99968.78;;;8.30;82.26
61682;BME280;47577;43.610;25.010;2023-04-20T03:41:10;99973.91;;;8.36;83.07
61682;BME280;47577;43.610;25.010;2023-04-20T03:43:35;99972.09;;;8.37;82.71
61682;BME280;47577;43.610;25.010;2023-04-20T03:46:01;99974.34;;;8.51;81.47
61682;BME280;47577;43.610;25.010;2023-04-20T03:48:27;99974.31;;;8.52;81.59
61682;BME280;47577;43.610;25.010;2023-04-20T03:50:52;99998.91;;;8.56;82.53
61682;BME280;47577;43.610;25.010;2023-04-20T03:53:18;100019.09;;;8.60;83.28
61682;BME280;47577;43.610;25.010;2023-04-20T03:55:44;100013.97;;;8.55;82.25
61682;BME280;47577;43.610;25.010;2023-04-20T03:58:09;100005.66;;;8.66;82.33
61682;BME280;47577;43.610;25.010;2023-04-20T04:00:35;100011.44;;;8.79;82.09
61682;BME280;47577;43.610;25.010;2023-04-20T04:03:01;100007.88;;;8.80;79.99
61682;BME280;47577;43.610;25.010;2023-04-20T04:05:27;100006.00;;;8.55;81.92
61682;BME280;47577;43.610;25.010;2023-04-20T04:07:52;100007.59;;;8.61;80.88
61682;BME280;47577;43.610;25.010;2023-04-20T04:10:18;99989.00;;;8.63;81.25
61682;BME280;47577;43.610;25.010;2023-04-20T04:12:44;100002.84;;;8.71;81.55
61682;BME280;47577;43.610;25.010;2023-04-20T04:15:11;100008.56;;;8.58;82.35
61682;BME280;47577;43.610;25.010;2023-04-20T04:17:37;100002.53;;;8.53;81.90
61682;BME280;47577;43.610;25.010;2023-04-20T04:20:03;99991.59;;;8.64;82.06
61682;BME280;47577;43.610;25.010;2023-04-20T04:22:30;100000.50;;;8.62;81.70
61682;BME280;47577;43.610;25.010;2023-04-20T04:24:55;99987.06;;;8.68;81.76
61682;BME280;47577;43.610;25.010;2023-04-20T04:27:21;99984.19;;;8.74;81.07
61682;BME280;47577;43.610;25.010;2023-04-20T04:29:48;99994.81;;;8.74;81.73
61682;BME280;47577;43.610;25.010;2023-04-20T04:32:18;99998.41;;;8.71;81.95
61682;BME280;47577;43.610;25.010;2023-04-20T04:34:44;99999.81;;;8.83;82.08
61682;BME280;47577;43.610;25.010;2023-04-20T04:37:10;99997.78;;;8.91;80.04
61682;BME280;47577;43.610;25.010;2023-04-20T04:39:36;100002.09;;;8.94;81.80
61682;BME280;47577;43.610;25.010;2023-04-20T04:42:01;99986.03;;;8.99;80.21
61682;BME280;47577;43.610;25.010;2023-04-20T04:44:27;99993.88;;;9.02;81.69
61682;BME280;47577;43.610;25.010;2023-04-20T04:46:54;99981.22;;;8.85;81.87
61682;BME280;47577;43.610;25.010;2023-04-20T04:49:19;99983.41;;;8.72;83.53
61682;BME280;47577;43.610;25.010;2023-04-20T04:51:46;99971.56;;;8.55;82.92
61682;BME280;47577;43.610;25.010;2023-04-20T04:54:12;99991.69;;;8.61;83.83
61682;BME280;47577;43.610;25.010;2023-04-20T04:56:37;99984.59;;;8.62;82.52
61682;BME280;47577;43.610;25.010;2023-04-20T04:59:03;99987.63;;;8.77;83.37
61682;BME280;47577;43.610;25.010;2023-04-20T05:01:29;99991.09;;;8.80;82.89
61682;BME280;47577;43.610;25.010;2023-04-20T05:03:54;99987.03;;;8.96;82.68
61682;BME280;47577;43.610;25.010;2023-04-20T05:06:20;100004.28;;;9.08;81.35
61682;BME280;47577;43.610;25.010;2023-04-20T05:08:46;100002.91;;;9.23;82.21
61682;BME280;47577;43.610;25.010;2023-04-20T05:11:11;99998.47;;;9.23;81.38
61682;BME280;47577;43.610;25.010;2023-04-20T05:13:37;100006.25;;;9.28;82.37
61682;BME280;47577;43.610;25.010;2023-04-20T05:16:02;99998.28;;;9.28;80.12
61682;BME280;47577;43.610;25.010;2023-04-20T05:18:28;100005.84;;;9.40;79.76
61682;BME280;47577;43.610;25.010;2023-04-20T05:20:54;100004.97;;;9.40;81.23
61682;BME280;47577;43.610;25.010;2023-04-20T05:23:19;99989.97;;;9.39;79.51
61682;BME280;47577;43.610;25.010;2023-04-20T05:25:45;99994.78;;;9.52;79.62
61682;BME280;47577;43.610;25.010;2023-04-20T05:28:10;99998.19;;;9.56;79.79
61682;BME280;47577;43.610;25.010;2023-04-20T05:30:36;100005.94;;;9.62;79.22
61682;BME280;47577;43.610;25.010;2023-04-20T05:33:02;100012.69;;;9.71;79.17
61682;BME280;47577;43.610;25.010;2023-04-20T05:35:28;100014.19;;;9.78;79.50
61682;BME280;47577;43.610;25.010;2023-04-20T05:37:53;100021.56;;;9.95;79.39
61682;BME280;47577;43.610;25.010;2023-04-20T05:40:19;100020.50;;;9.99;79.47
61682;BME280;47577;43.610;25.010;2023-04-20T05:42:45;100021.78;;;10.13;78.16
61682;BME280;47577;43.610;25.010;2023-04-20T05:45:11;100026.81;;;10.20;79.25
61682;BME280;47577;43.610;25.010;2023-04-20T05:47:36;100035.84;;;10.40;78.24
61682;BME280;47577;43.610;25.010;2023-04-20T05:50:03;100039.41;;;10.39;78.67
61682;BME280;47577;43.610;25.010;2023-04-20T05:52:28;100028.50;;;10.47;77.67
61682;BME280;47577;43.610;25.010;2023-04-20T05:54:54;100035.16;;;10.57;77.95
61682;BME280;47577;43.610;25.010;2023-04-20T05:57:20;100023.56;;;10.59;77.71
61682;BME280;47577;43.610;25.010;2023-04-20T05:59:47;100029.38;;;10.69;77.07
61682;BME280;47577;43.610;25.010;2023-04-20T06:02:12;100026.03;;;10.86;78.39
61682;BME280;47577;43.610;25.010;2023-04-20T06:04:38;100029.34;;;10.91;76.82
61682;BME280;47577;43.610;25.010;2023-04-20T06:07:04;100032.50;;;11.01;77.45
61682;BME280;47577;43.610;25.010;2023-04-20T06:09:29;100033.63;;;10.95;77.72
61682;BME280;47577;43.610;25.010;2023-04-20T06:11:55;100038.28;;;11.11;77.80
61682;BME280;47577;43.610;25.010;2023-04-20T06:14:21;100050.84;;;11.29;77.92
61682;BME280;47577;43.610;25.010;2023-04-20T06:16:47;100049.03;;;10.87;77.97
61682;BME280;47577;43.610;25.010;2023-04-20T06:19:12;100061.31;;;10.90;78.76
61682;BME280;47577;43.610;25.010;2023-04-20T06:21:39;100049.00;;;11.09;79.01
61682;BME280;47577;43.610;25.010;2023-04-20T06:24:05;100058.66;;;11.12;77.66
61682;BME280;47577;43.610;25.010;2023-04-20T06:26:31;100051.00;;;11.04;79.08
61682;BME280;47577;43.610;25.010;2023-04-20T06:28:57;100058.53;;;11.15;78.16
61682;BME280;47577;43.610;25.010;2023-04-20T06:31:22;100061.81;;;11.22;78.58
61682;BME280;47577;43.610;25.010;2023-04-20T06:33:49;100050.38;;;11.20;78.89
61682;BME280;47577;43.610;25.010;2023-04-20T06:36:14;100068.16;;;11.40;78.50
61682;BME280;47577;43.610;25.010;2023-04-20T06:38:40;100061.59;;;11.48;77.65
61682;BME280;47577;43.610;25.010;2023-04-20T06:41:06;100069.34;;;11.53;77.23
61682;BME280;47577;43.610;25.010;2023-04-20T06:43:31;100063.56;;;11.64;77.52
61682;BME280;47577;43.610;25.010;2023-04-20T06:45:57;100064.69;;;11.38;77.91
61682;BME280;47577;43.610;25.010;2023-04-20T06:48:23;100062.44;;;11.49;77.09
61682;BME280;47577;43.610;25.010;2023-04-20T06:50:49;100067.97;;;11.44;77.63
61682;BME280;47577;43.610;25.010;2023-04-20T06:53:15;100072.97;;;11.52;77.42
61682;BME280;47577;43.610;25.010;2023-04-20T06:55:41;100064.50;;;11.63;77.35
61682;BME280;47577;43.610;25.010;2023-04-20T06:58:07;100082.13;;;11.65;78.63
61682;BME280;47577;43.610;25.010;2023-04-20T07:00:32;100073.09;;;11.49;79.51
61682;BME280;47577;43.610;25.010;2023-04-20T07:02:58;100075.28;;;11.80;77.06
61682;BME280;47577;43.610;25.010;2023-04-20T07:05:24;100075.59;;;11.73;77.45
61682;BME280;47577;43.610;25.010;2023-04-20T07:07:53;100073.91;;;11.71;77.67
61682;BME280;47577;43.610;25.010;2023-04-20T07:10:19;100080.09;;;11.93;76.92
61682;BME280;47577;43.610;25.010;2023-04-20T07:12:44;100083.16;;;12.04;76.44
61682;BME280;47577;43.610;25.010;2023-04-20T07:15:10;100073.56;;;12.00;76.91
61682;BME280;47577;43.610;25.010;2023-04-20T07:17:36;100087.91;;;12.16;77.02
61682;BME280;47577;43.610;25.010;2023-04-20T07:20:02;100084.59;;;12.51;77.24
61682;BME280;47577;43.610;25.010;2023-04-20T07:22:34;100078.94;;;12.76;75.83
61682;BME280;47577;43.610;25.010;2023-04-20T07:25:05;100079.00;;;12.93;74.29
61682;BME280;47577;43.610;25.010;2023-04-20T07:27:37;100083.47;;;12.93;73.99
61682;BME280;47577;43.610;25.010;2023-04-20T07:30:03;100083.75;;;12.49;74.66
61682;BME280;47577;43.610;25.010;2023-04-20T07:32:32;100085.00;;;12.60;75.05
61682;BME280;47577;43.610;25.010;2023-04-20T07:34:57;100085.50;;;12.69;74.60
61682;BME280;47577;43.610;25.010;2023-04-20T07:37:23;100079.56;;;12.81;75.67
61682;BME280;47577;43.610;25.010;2023-04-20T07:39:51;100085.59;;;13.04;74.39
61682;BME280;47577;43.610;25.010;2023-04-20T07:42:17;100086.50;;;12.85;73.15
61682;BME280;47577;43.610;25.010;2023-04-20T07:44:43;100079.28;;;12.87;76.53
61682;BME280;47577;43.610;25.010;2023-04-20T07:47:08;100074.56;;;13.11;74.71
61682;BME280;47577;43.610;25.010;2023-04-20T07:49:37;100077.63;;;13.21;75.46
61682;BME280;47577;43.610;25.010;2023-04-20T07:52:05;100078.09;;;13.29;74.54
61682;BME280;47577;43.610;25.010;2023-04-20T07:54:31;100085.00;;;13.52;74.43
61682;BME280;47577;43.610;25.010;2023-04-20T07:56:57;100088.38;;;13.39;72.13
61682;BME280;47577;43.610;25.010;2023-04-20T07:59:23;100084.03;;;13.36;74.27
61682;BME280;47577;43.610;25.010;2023-04-20T08:01:49;100085.38;;;13.45;73.41
61682;BME280;47577;43.610;25.010;2023-04-20T08:04:15;100064.88;;;13.45;72.77
61682;BME280;47577;43.610;25.010;2023-04-20T08:06:41;100070.84;;;13.50;72.73
61682;BME280;47577;43.610;25.010;2023-04-20T08:09:07;100074.69;;;13.80;74.96
61682;BME280;47577;43.610;25.010;2023-04-20T08:11:33;100063.59;;;13.87;74.80
61682;BME280;47577;43.610;25.010;2023-04-20T08:13:59;100071.88;;;14.16;71.63
61682;BME280;47577;43.610;25.010;2023-04-20T08:16:26;100063.34;;;14.41;72.16
61682;BME280;47577;43.610;25.010;2023-04-20T08:18:51;100070.16;;;14.65;71.96
61682;BME280;47577;43.610;25.010;2023-04-20T08:21:17;100073.34;;;14.71;71.30
61682;BME280;47577;43.610;25.010;2023-04-20T08:23:43;100067.03;;;14.72;71.42
61682;BME280;47577;43.610;25.010;2023-04-20T08:26:13;100063.59;;;14.86;71.21
61682;BME280;47577;43.610;25.010;2023-04-20T08:28:39;100063.81;;;15.13;71.38
61682;BME280;47577;43.610;25.010;2023-04-20T08:31:05;100050.31;;;15.31;69.41
61682;BME280;47577;43.610;25.010;2023-04-20T08:33:30;100059.28;;;15.60;69.34
61682;BME280;47577;43.610;25.010;2023-04-20T08:35:56;100066.03;;;15.51;67.25
61682;BME280;47577;43.610;25.010;2023-04-20T08:38:22;100061.28;;;15.26;68.03
61682;BME280;47577;43.610;25.010;2023-04-20T08:40:48;100058.03;;;15.21;69.28
61682;BME280;47577;43.610;25.010;2023-04-20T08:43:15;100061.19;;;15.28;67.60
61682;BME280;47577;43.610;25.010;2023-04-20T08:45:45;100062.25;;;15.09;69.54
61682;BME280;47577;43.610;25.010;2023-04-20T08:48:13;100054.34;;;15.38;69.59
61682;BME280;47577;43.610;25.010;2023-04-20T08:50:42;100068.88;;;15.34;67.49
61682;BME280;47577;43.610;25.010;2023-04-20T08:53:08;100064.03;;;15.41;68.40
61682;BME280;47577;43.610;25.010;2023-04-20T08:55:34;100060.13;;;15.61;68.06
61682;BME280;47577;43.610;25.010;2023-04-20T08:57:59;100060.59;;;15.53;68.64
61682;BME280;47577;43.610;25.010;2023-04-20T09:00:25;100060.97;;;15.77;68.08
61682;BME280;47577;43.610;25.010;2023-04-20T09:02:55;100060.00;;;15.48;68.15
61682;BME280;47577;43.610;25.010;2023-04-20T09:05:29;100054.47;;;15.81;68.30
61682;BME280;47577;43.610;25.010;2023-04-20T09:07:57;100057.34;;;15.93;67.93
61682;BME280;47577;43.610;25.010;2023-04-20T09:10:24;100060.72;;;16.11;67.14
61682;BME280;47577;43.610;25.010;2023-04-20T09:12:50;100047.69;;;15.90;67.00
61682;BME280;47577;43.610;25.010;2023-04-20T09:15:26;100046.84;;;16.04;66.53
61682;BME280;47577;43.610;25.010;2023-04-20T09:17:54;100051.69;;;16.40;64.91
61682;BME280;47577;43.610;25.010;2023-04-20T09:20:33;100054.94;;;16.45;63.76
61682;BME280;47577;43.610;25.010;2023-04-20T09:23:12;100037.75;;;16.62;65.61
61682;BME280;47577;43.610;25.010;2023-04-20T09:25:39;100042.53;;;16.72;62.47
61682;BME280;47577;43.610;25.010;2023-04-20T09:28:08;100036.19;;;16.73;63.65
61682;BME280;47577;43.610;25.010;2023-04-20T09:30:42;100052.66;;;16.54;63.18
61682;BME280;47577;43.610;25.010;2023-04-20T09:33:08;100043.06;;;16.50;59.71
61682;BME280;47577;43.610;25.010;2023-04-20T09:35:42;100033.53;;;16.58;57.84
61682;BME280;47577;43.610;25.010;2023-04-20T09:38:09;100036.97;;;16.75;60.48
61682;BME280;47577;43.610;25.010;2023-04-20T09:40:35;100034.31;;;17.02;59.32
61682;BME280;47577;43.610;25.010;2023-04-20T09:43:15;100033.00;;;17.22;58.65
61682;BME280;47577;43.610;25.010;2023-04-20T09:45:42;100034.53;;;17.39;58.20
61682;BME280;47577;43.610;25.010;2023-04-20T09:48:09;100041.31;;;17.45;59.33
61682;BME280;47577;43.610;25.010;2023-04-20T09:50:36;100034.13;;;17.58;60.44
61682;BME280;47577;43.610;25.010;2023-04-20T09:53:03;100035.75;;;17.86;57.82
61682;BME280;47577;43.610;25.010;2023-04-20T09:55:32;100041.69;;;17.79;54.78
61682;BME280;47577;43.610;25.010;2023-04-20T09:58:00;100031.19;;;18.01;55.82
61682;BME280;47577;43.610;25.010;2023-04-20T10:00:27;100029.34;;;17.89;54.01
61682;BME280;47577;43.610;25.010;2023-04-20T10:02:53;100020.38;;;17.63;53.11
61682;BME280;47577;43.610;25.010;2023-04-20T10:05:18;100024.13;;;17.86;54.59
61682;BME280;47577;43.610;25.010;2023-04-20T10:07:44;100015.97;;;18.13;56.49
61682;BME280;47577;43.610;25.010;2023-04-20T10:10:12;100019.59;;;17.73;54.99
61682;BME280;47577;43.610;25.010;2023-04-20T10:12:52;100025.91;;;18.00;52.93
61682;BME280;47577;43.610;25.010;2023-04-20T10:15:18;100018.75;;;18.24;53.61
61682;BME280;47577;43.610;25.010;2023-04-20T10:17:46;100015.25;;;18.48;49.74
61682;BME280;47577;43.610;25.010;2023-04-20T10:20:23;100016.13;;;18.49;51.03
61682;BME280;47577;43.610;25.010;2023-04-20T10:22:53;100011.56;;;18.62;52.89
61682;BME280;47577;43.610;25.010;2023-04-20T10:25:22;100015.75;;;18.29;52.28
61682;BME280;47577;43.610;25.010;2023-04-20T10:28:00;100015.16;;;18.00;52.72
61682;BME280;47577;43.610;25.010;2023-04-20T10:30:29;100008.78;;;18.51;53.26
61682;BME280;47577;43.610;25.010;2023-04-20T10:33:05;100017.53;;;18.78;52.46
61682;BME280;47577;43.610;25.010;2023-04-20T10:35:46;100008.63;;;19.02;49.33
61682;BME280;47577;43.610;25.010;2023-04-20T10:38:12;100022.06;;;18.78;50.36
61682;BME280;47577;43.610;25.010;2023-04-20T10:40:38;100011.38;;;18.52;48.99
61682;BME280;47577;43.610;25.010;2023-04-20T10:43:03;100000.28;;;18.57;50.96
61682;BME280;47577;43.610;25.010;2023-04-20T10:45:36;100004.53;;;18.96;49.12
61682;BME280;47577;43.610;25.010;2023-04-20T10:48:09;99998.56;;;19.28;47.33
61682;BME280;47577;43.610;25.010;2023-04-20T10:50:35;99996.31;;;19.58;50.98
61682;BME280;47577;43.610;25.010;2023-04-20T10:53:02;100005.44;;;19.90;46.02
61682;BME280;47577;43.610;25.010;2023-04-20T10:55:28;100005.22;;;19.47;48.04
61682;BME280;47577;43.610;25.010;2023-04-20T10:57:54;100001.19;;;19.52;46.81
61682;BME280;47577;43.610;25.010;2023-04-20T11:00:25;99998.66;;;18.91;50.92
61682;BME280;47577;43.610;25.010;2023-04-20T11:02:53;99991.75;;;19.47;51.06
61682;BME280;47577;43.610;25.010;2023-04-20T11:05:23;100006.69;;;19.86;46.93
61682;BME280;47577;43.610;25.010;2023-04-20T11:07:59;99985.22;;;19.38;49.77
61682;BME280;47577;43.610;25.010;2023-04-20T11:10:40;99996.16;;;19.95;47.15
61682;BME280;47577;43.610;25.010;2023-04-20T11:13:06;99994.41;;;20.16;50.97
61682;BME280;47577;43.610;25.010;2023-04-20T11:15:43;99982.53;;;20.30;46.56
61682;BME280;47577;43.610;25.010;2023-04-20T11:18:09;99990.13;;;20.25;44.97
61682;BME280;47577;43.610;25.010;2023-04-20T11:20:37;99993.63;;;19.69;44.40
61682;BME280;47577;43.610;25.010;2023-04-20T11:23:13;99988.63;;;19.29;47.53
61682;BME280;47577;43.610;25.010;2023-04-20T11:25:51;99978.75;;;19.41;47.03
61682;BME280;47577;43.610;25.010;2023-04-20T11:28:18;99982.06;;;19.44;47.42
61682;BME280;47577;43.610;25.010;2023-04-20T11:30:44;99988.53;;;19.42;47.92
61682;BME280;47577;43.610;25.010;2023-04-20T11:33:10;99965.53;;;19.49;49.57
61682;BME280;47577;43.610;25.010;2023-04-20T11:35:36;99977.50;;;19.80;46.75
61682;BME280;47577;43.610;25.010;2023-04-20T11:38:02;99962.28;;;20.13;44.44
61682;BME280;47577;43.610;25.010;2023-04-20T11:40:28;99963.13;;;20.36;45.59
61682;BME280;47577;43.610;25.010;2023-04-20T11:42:54;99954.78;;;20.39;46.28
61682;BME280;47577;43.610;25.010;2023-04-20T11:45:20;99957.19;;;20.54;46.11
61682;BME280;47577;43.610;25.010;2023-04-20T11:47:46;99950.41;;;21.03;45.59
61682;BME280;47577;43.610;25.010;2023-04-20T11:50:12;99948.28;;;20.86;43.88
61682;BME280;47577;43.610;25.010;2023-04-20T11:52:38;99940.00;;;21.19;43.24
61682;BME280;47577;43.610;25.010;2023-04-20T11:55:05;99948.09;;;20.66;41.58
61682;BME280;47577;43.610;25.010;2023-04-20T11:57:30;99951.38;;;21.02;43.12
61682;BME280;47577;43.610;25.010;2023-04-20T11:59:57;99949.22;;;21.38;44.00
61682;BME280;47577;43.610;25.010;2023-04-20T12:02:23;99939.03;;;21.21;42.52
61682;BME280;47577;43.610;25.010;2023-04-20T12:04:48;99930.59;;;21.56;40.96
61682;BME280;47577;43.610;25.010;2023-04-20T12:07:14;99939.16;;;21.19;40.42
61682;BME280;47577;43.610;25.010;2023-04-20T12:09:40;99924.56;;;21.10;42.69
61682;BME280;47577;43.610;25.010;2023-04-20T12:12:06;99935.50;;;21.30;40.60
61682;BME280;47577;43.610;25.010;2023-04-20T12:14:35;99926.47;;;21.41;43.73
61682;BME280;47577;43.610;25.010;2023-04-20T12:17:01;99927.25;;;21.73;41.95
61682;BME280;47577;43.610;25.010;2023-04-20T12:19:28;99927.28;;;21.83;42.70
61682;BME280;47577;43.610;25.010;2023-04-20T12:21:54;99923.34;;;21.57;43.10
61682;BME280;47577;43.610;25.010;2023-04-20T12:24:20;99924.19;;;21.15;43.69
61682;BME280;47577;43.610;25.010;2023-04-20T12:26:45;99919.38;;;20.54;43.11
61682;BME280;47577;43.610;25.010;2023-04-20T12:29:11;99901.31;;;20.98;44.65
61682;BME280;47577;43.610;25.010;2023-04-20T12:31:37;99914.34;;;20.60;44.77
61682;BME280;47577;43.610;25.010;2023-04-20T12:34:03;99914.22;;;20.73;43.78
61682;BME280;47577;43.610;25.010;2023-04-20T12:36:28;99904.25;;;20.62;44.52
61682;BME280;47577;43.610;25.010;2023-04-20T12:38:54;99888.72;;;20.43;42.99
61682;BME280;47577;43.610;25.010;2023-04-20T12:41:21;99890.88;;;20.61;46.45
61682;BME280;47577;43.610;25.010;2023-04-20T12:43:50;99894.72;;;21.12;40.16
61682;BME280;47577;43.610;25.010;2023-04-20T12:46:16;99878.34;;;21.34;41.05